KESWICK RESERVOIR (KES)

Elevation: 596' · SACRAMENTO R basin · Operator: US Bureau of Reclamation

Provisional data, subject to change.
Query executed Friday at 0:20:15   clock

Select a sensor type for a plot of data.
Note: Reservoir Flows are daily averages.

Earlier

Date RES ELE    STORAGE    RES CHG    OUTFLOW    INFLOW   
 FEET   AF   AF   CFS   CFS  
11/20/2014 575.49 17067 -1104 3928 3372
11/21/2014 579.62 19310 2243 3958 5092
11/22/2014 579.04 18984 -326 3989 3825
11/23/2014 580.33 19714 730 3933 4302
11/24/2014 580.30 19697 -17 3959 3951
11/25/2014 579.66 19333 -364 3976 3792
11/26/2014 579.94 19490 157 3987 4067
11/27/2014 579.83 19428 -62 3981 3951
11/28/2014 579.88 19457 29 3982 3997
11/29/2014 579.94 19490 33 3985 4002
11/30/2014 580.07 19564 74 3982 4020
12/01/2014 580.41 19760 196 3849 3949
12/02/2014 581.15 20188 428 3450 3667
12/03/2014 582.70 21104 916 3375 3837
12/04/2014 582.96 21259 155 3308 3386
12/05/2014 583.84 21793 534 3326 3596
12/06/2014 584.53 22217 424 3310 3524
12/07/2014 583.65 21678 -539 3306 3035
12/08/2014 584.01 21896 218 3196 3307
12/09/2014 585.90 23072 1176 3190 3784
12/10/2014 584.83 22402 -670 3066 2729
12/11/2014 582.82 21176 -1226 4723 4105
12/12/2014 581.22 20229 -947 4178 3701
12/13/2014 581.10 20159 -70 3909 3875
12/14/2014 579.14 19041 -1118 3862 3299
12/15/2014 580.74 19950 909 3854 4313
12/16/2014 585.13 22589 2639 3054 4385
12/17/2014 585.26 22670 81 3062 3103
12/18/2014 -- -- -- -- --
12/19/2014 -- -- -- -- --

Later | Latest

Warning! This data is preliminary and subject to revision.

Show KES Map | Plot KES Data | 1 Month KES Data | Real-Time KES Data | KES Info